sensor_id;sensor_type;location;lat;lon;timestamp;P1;durP1;ratioP1;P2;durP2;ratioP2
18378;SDS011;27025;51.986;5.984;2023-04-25T00:01:34;15.87;;;6.00;;
18378;SDS011;27025;51.986;5.984;2023-04-25T00:04:00;19.00;;;5.60;;
18378;SDS011;27025;51.986;5.984;2023-04-25T00:06:26;14.63;;;5.75;;
18378;SDS011;27025;51.986;5.984;2023-04-25T00:08:56;15.70;;;5.57;;
18378;SDS011;27025;51.986;5.984;2023-04-25T00:11:22;18.23;;;6.00;;
18378;SDS011;27025;51.986;5.984;2023-04-25T00:13:49;17.92;;;6.32;;
18378;SDS011;27025;51.986;5.984;2023-04-25T00:16:19;16.33;;;5.68;;
18378;SDS011;27025;51.986;5.984;2023-04-25T00:18:45;18.00;;;5.80;;
18378;SDS011;27025;51.986;5.984;2023-04-25T00:21:16;17.48;;;6.38;;
18378;SDS011;27025;51.986;5.984;2023-04-25T00:23:43;19.17;;;6.00;;
18378;SDS011;27025;51.986;5.984;2023-04-25T00:26:11;17.80;;;5.88;;
18378;SDS011;27025;51.986;5.984;2023-04-25T00:28:37;18.90;;;6.10;;
18378;SDS011;27025;51.986;5.984;2023-04-25T00:31:03;19.13;;;6.03;;
18378;SDS011;27025;51.986;5.984;2023-04-25T00:33:29;17.63;;;5.57;;
18378;SDS011;27025;51.986;5.984;2023-04-25T00:35:55;16.55;;;6.03;;
18378;SDS011;27025;51.986;5.984;2023-04-25T00:38:21;20.73;;;6.28;;
18378;SDS011;27025;51.986;5.984;2023-04-25T00:40:47;22.00;;;6.20;;
18378;SDS011;27025;51.986;5.984;2023-04-25T00:43:13;20.02;;;5.95;;
18378;SDS011;27025;51.986;5.984;2023-04-25T00:45:40;21.10;;;6.40;;
18378;SDS011;27025;51.986;5.984;2023-04-25T00:48:06;18.77;;;5.88;;
18378;SDS011;27025;51.986;5.984;2023-04-25T00:50:33;18.73;;;5.80;;
18378;SDS011;27025;51.986;5.984;2023-04-25T00:52:59;22.48;;;6.75;;
18378;SDS011;27025;51.986;5.984;2023-04-25T00:55:26;21.40;;;6.38;;
18378;SDS011;27025;51.986;5.984;2023-04-25T00:57:52;15.50;;;5.53;;
18378;SDS011;27025;51.986;5.984;2023-04-25T01:00:18;19.37;;;5.47;;
18378;SDS011;27025;51.986;5.984;2023-04-25T01:02:45;18.70;;;5.07;;
18378;SDS011;27025;51.986;5.984;2023-04-25T01:05:12;22.30;;;5.83;;
18378;SDS011;27025;51.986;5.984;2023-04-25T01:07:38;18.60;;;5.37;;
18378;SDS011;27025;51.986;5.984;2023-04-25T01:10:05;16.83;;;5.63;;
18378;SDS011;27025;51.986;5.984;2023-04-25T01:12:31;16.57;;;5.27;;
18378;SDS011;27025;51.986;5.984;2023-04-25T01:14:57;19.80;;;5.10;;
18378;SDS011;27025;51.986;5.984;2023-04-25T01:17:24;23.73;;;6.47;;
18378;SDS011;27025;51.986;5.984;2023-04-25T01:19:50;19.87;;;5.50;;
18378;SDS011;27025;51.986;5.984;2023-04-25T01:22:16;18.80;;;6.00;;
18378;SDS011;27025;51.986;5.984;2023-04-25T01:24:43;13.83;;;5.67;;
18378;SDS011;27025;51.986;5.984;2023-04-25T01:27:09;20.02;;;6.18;;
18378;SDS011;27025;51.986;5.984;2023-04-25T01:29:35;20.97;;;6.47;;
18378;SDS011;27025;51.986;5.984;2023-04-25T01:32:01;23.38;;;6.80;;
18378;SDS011;27025;51.986;5.984;2023-04-25T01:34:28;24.00;;;7.25;;
18378;SDS011;27025;51.986;5.984;2023-04-25T01:36:54;20.48;;;7.05;;
18378;SDS011;27025;51.986;5.984;2023-04-25T01:39:20;20.50;;;7.28;;
18378;SDS011;27025;51.986;5.984;2023-04-25T01:41:47;20.58;;;6.97;;
18378;SDS011;27025;51.986;5.984;2023-04-25T01:44:13;19.98;;;7.00;;
18378;SDS011;27025;51.986;5.984;2023-04-25T01:46:39;23.95;;;7.13;;
18378;SDS011;27025;51.986;5.984;2023-04-25T01:49:05;23.45;;;7.40;;
18378;SDS011;27025;51.986;5.984;2023-04-25T01:51:31;26.48;;;7.55;;
18378;SDS011;27025;51.986;5.984;2023-04-25T01:53:58;26.77;;;7.53;;
18378;SDS011;27025;51.986;5.984;2023-04-25T01:56:24;24.65;;;6.93;;
18378;SDS011;27025;51.986;5.984;2023-04-25T01:58:50;20.48;;;6.78;;
18378;SDS011;27025;51.986;5.984;2023-04-25T02:01:17;23.50;;;7.43;;
18378;SDS011;27025;51.986;5.984;2023-04-25T02:03:43;24.05;;;7.35;;
18378;SDS011;27025;51.986;5.984;2023-04-25T02:06:09;20.70;;;6.57;;
18378;SDS011;27025;51.986;5.984;2023-04-25T02:08:35;27.20;;;7.20;;
18378;SDS011;27025;51.986;5.984;2023-04-25T02:11:02;23.50;;;7.07;;
18378;SDS011;27025;51.986;5.984;2023-04-25T02:13:28;20.67;;;6.88;;
18378;SDS011;27025;51.986;5.984;2023-04-25T02:15:54;25.40;;;7.20;;
18378;SDS011;27025;51.986;5.984;2023-04-25T02:18:20;20.67;;;6.78;;
18378;SDS011;27025;51.986;5.984;2023-04-25T02:20:46;24.35;;;7.03;;
18378;SDS011;27025;51.986;5.984;2023-04-25T02:23:13;24.23;;;7.00;;
18378;SDS011;27025;51.986;5.984;2023-04-25T02:25:40;22.98;;;7.18;;
18378;SDS011;27025;51.986;5.984;2023-04-25T02:28:06;24.07;;;7.20;;
18378;SDS011;27025;51.986;5.984;2023-04-25T02:30:32;26.85;;;7.32;;
18378;SDS011;27025;51.986;5.984;2023-04-25T02:32:58;21.63;;;6.85;;
18378;SDS011;27025;51.986;5.984;2023-04-25T02:35:25;24.48;;;6.75;;
18378;SDS011;27025;51.986;5.984;2023-04-25T02:37:51;25.50;;;7.15;;
18378;SDS011;27025;51.986;5.984;2023-04-25T02:40:17;21.40;;;7.13;;
18378;SDS011;27025;51.986;5.984;2023-04-25T02:42:43;24.07;;;7.00;;
18378;SDS011;27025;51.986;5.984;2023-04-25T02:45:10;20.83;;;6.75;;
18378;SDS011;27025;51.986;5.984;2023-04-25T02:47:37;23.13;;;6.97;;
18378;SDS011;27025;51.986;5.984;2023-04-25T02:50:03;23.50;;;6.78;;
18378;SDS011;27025;51.986;5.984;2023-04-25T02:52:29;21.25;;;6.53;;
18378;SDS011;27025;51.986;5.984;2023-04-25T02:54:55;18.48;;;6.43;;
18378;SDS011;27025;51.986;5.984;2023-04-25T02:57:21;21.63;;;6.68;;
18378;SDS011;27025;51.986;5.984;2023-04-25T02:59:47;24.47;;;6.80;;
18378;SDS011;27025;51.986;5.984;2023-04-25T03:02:13;21.02;;;6.97;;
18378;SDS011;27025;51.986;5.984;2023-04-25T03:04:40;22.88;;;6.40;;
18378;SDS011;27025;51.986;5.984;2023-04-25T03:07:06;20.33;;;6.13;;
18378;SDS011;27025;51.986;5.984;2023-04-25T03:09:32;18.70;;;6.13;;
18378;SDS011;27025;51.986;5.984;2023-04-25T03:11:58;20.30;;;6.37;;
18378;SDS011;27025;51.986;5.984;2023-04-25T03:14:25;19.27;;;5.75;;
18378;SDS011;27025;51.986;5.984;2023-04-25T03:16:51;17.47;;;6.00;;
18378;SDS011;27025;51.986;5.984;2023-04-25T03:19:17;19.42;;;6.20;;
18378;SDS011;27025;51.986;5.984;2023-04-25T03:21:43;13.30;;;5.20;;
18378;SDS011;27025;51.986;5.984;2023-04-25T03:24:09;17.60;;;5.97;;
18378;SDS011;27025;51.986;5.984;2023-04-25T03:26:38;18.40;;;5.37;;
18378;SDS011;27025;51.986;5.984;2023-04-25T03:29:04;15.90;;;5.88;;
18378;SDS011;27025;51.986;5.984;2023-04-25T03:31:30;19.13;;;6.32;;
18378;SDS011;27025;51.986;5.984;2023-04-25T03:33:56;18.48;;;5.47;;
18378;SDS011;27025;51.986;5.984;2023-04-25T03:36:22;20.67;;;6.07;;
18378;SDS011;27025;51.986;5.984;2023-04-25T03:38:48;18.25;;;5.88;;
18378;SDS011;27025;51.986;5.984;2023-04-25T03:41:15;24.33;;;6.57;;
18378;SDS011;27025;51.986;5.984;2023-04-25T03:43:41;18.77;;;6.20;;
18378;SDS011;27025;51.986;5.984;2023-04-25T03:46:07;20.13;;;6.43;;
18378;SDS011;27025;51.986;5.984;2023-04-25T03:48:33;19.33;;;5.47;;
18378;SDS011;27025;51.986;5.984;2023-04-25T03:50:59;19.17;;;6.30;;
18378;SDS011;27025;51.986;5.984;2023-04-25T03:53:25;19.20;;;5.17;;
18378;SDS011;27025;51.986;5.984;2023-04-25T03:55:51;21.03;;;5.93;;
18378;SDS011;27025;51.986;5.984;2023-04-25T03:58:17;16.42;;;5.75;;
18378;SDS011;27025;51.986;5.984;2023-04-25T04:00:43;19.23;;;5.43;;
18378;SDS011;27025;51.986;5.984;2023-04-25T04:03:12;21.00;;;6.32;;
18378;SDS011;27025;51.986;5.984;2023-04-25T04:05:38;24.30;;;6.40;;
18378;SDS011;27025;51.986;5.984;2023-04-25T04:08:05;19.73;;;5.57;;
18378;SDS011;27025;51.986;5.984;2023-04-25T04:10:32;15.03;;;5.37;;
18378;SDS011;27025;51.986;5.984;2023-04-25T04:12:58;19.43;;;6.00;;
18378;SDS011;27025;51.986;5.984;2023-04-25T04:15:24;20.92;;;6.80;;
18378;SDS011;27025;51.986;5.984;2023-04-25T04:17:50;22.90;;;6.60;;
18378;SDS011;27025;51.986;5.984;2023-04-25T04:20:16;20.60;;;6.90;;
18378;SDS011;27025;51.986;5.984;2023-04-25T04:22:42;21.03;;;6.73;;
18378;SDS011;27025;51.986;5.984;2023-04-25T04:25:08;20.38;;;6.65;;
18378;SDS011;27025;51.986;5.984;2023-04-25T04:27:36;22.48;;;6.50;;
18378;SDS011;27025;51.986;5.984;2023-04-25T04:30:02;21.13;;;6.70;;
18378;SDS011;27025;51.986;5.984;2023-04-25T04:32:29;21.33;;;6.80;;
18378;SDS011;27025;51.986;5.984;2023-04-25T04:34:55;19.63;;;6.30;;
18378;SDS011;27025;51.986;5.984;2023-04-25T04:37:22;17.95;;;6.03;;
18378;SDS011;27025;51.986;5.984;2023-04-25T04:39:49;18.45;;;6.25;;
18378;SDS011;27025;51.986;5.984;2023-04-25T04:42:15;19.80;;;6.20;;
18378;SDS011;27025;51.986;5.984;2023-04-25T04:44:41;18.80;;;6.82;;
18378;SDS011;27025;51.986;5.984;2023-04-25T04:47:09;21.42;;;6.65;;
18378;SDS011;27025;51.986;5.984;2023-04-25T04:49:35;23.85;;;6.47;;
18378;SDS011;27025;51.986;5.984;2023-04-25T04:52:01;20.10;;;6.30;;
18378;SDS011;27025;51.986;5.984;2023-04-25T04:54:27;19.85;;;6.28;;
18378;SDS011;27025;51.986;5.984;2023-04-25T04:56:53;19.30;;;6.57;;
18378;SDS011;27025;51.986;5.984;2023-04-25T04:59:20;20.52;;;7.72;;
18378;SDS011;27025;51.986;5.984;2023-04-25T05:01:46;21.88;;;7.20;;
18378;SDS011;27025;51.986;5.984;2023-04-25T05:04:12;22.10;;;7.27;;
18378;SDS011;27025;51.986;5.984;2023-04-25T05:06:38;16.73;;;6.20;;
18378;SDS011;27025;51.986;5.984;2023-04-25T05:09:05;21.17;;;6.63;;
18378;SDS011;27025;51.986;5.984;2023-04-25T05:11:31;15.77;;;5.80;;
18378;SDS011;27025;51.986;5.984;2023-04-25T05:13:57;16.73;;;6.50;;
18378;SDS011;27025;51.986;5.984;2023-04-25T05:16:23;20.10;;;7.30;;
18378;SDS011;27025;51.986;5.984;2023-04-25T05:18:49;21.55;;;7.70;;
18378;SDS011;27025;51.986;5.984;2023-04-25T05:21:15;22.13;;;7.68;;
18378;SDS011;27025;51.986;5.984;2023-04-25T05:23:41;19.60;;;7.30;;
18378;SDS011;27025;51.986;5.984;2023-04-25T05:26:07;16.15;;;7.22;;
18378;SDS011;27025;51.986;5.984;2023-04-25T05:28:38;20.02;;;7.03;;
18378;SDS011;27025;51.986;5.984;2023-04-25T05:31:04;19.65;;;7.22;;
18378;SDS011;27025;51.986;5.984;2023-04-25T05:33:35;19.48;;;7.45;;
18378;SDS011;27025;51.986;5.984;2023-04-25T05:36:01;18.73;;;7.75;;
18378;SDS011;27025;51.986;5.984;2023-04-25T05:38:27;21.23;;;7.15;;
18378;SDS011;27025;51.986;5.984;2023-04-25T05:40:53;19.95;;;6.93;;
18378;SDS011;27025;51.986;5.984;2023-04-25T05:43:19;18.52;;;6.72;;
18378;SDS011;27025;51.986;5.984;2023-04-25T05:45:47;16.92;;;6.68;;
18378;SDS011;27025;51.986;5.984;2023-04-25T05:48:13;17.98;;;7.20;;
18378;SDS011;27025;51.986;5.984;2023-04-25T05:50:39;19.83;;;6.72;;
18378;SDS011;27025;51.986;5.984;2023-04-25T05:53:05;22.20;;;5.73;;
18378;SDS011;27025;51.986;5.984;2023-04-25T05:55:31;19.00;;;5.87;;
18378;SDS011;27025;51.986;5.984;2023-04-25T05:57:57;17.77;;;5.43;;
18378;SDS011;27025;51.986;5.984;2023-04-25T06:00:23;14.20;;;5.73;;
18378;SDS011;27025;51.986;5.984;2023-04-25T06:02:50;17.00;;;5.93;;
18378;SDS011;27025;51.986;5.984;2023-04-25T06:05:16;17.57;;;5.40;;
18378;SDS011;27025;51.986;5.984;2023-04-25T06:07:42;16.65;;;6.15;;
18378;SDS011;27025;51.986;5.984;2023-04-25T06:10:08;17.77;;;6.53;;
18378;SDS011;27025;51.986;5.984;2023-04-25T06:12:34;18.67;;;6.40;;
18378;SDS011;27025;51.986;5.984;2023-04-25T06:15:01;14.77;;;5.80;;
18378;SDS011;27025;51.986;5.984;2023-04-25T06:17:27;16.27;;;5.78;;
18378;SDS011;27025;51.986;5.984;2023-04-25T06:19:53;15.03;;;5.30;;
18378;SDS011;27025;51.986;5.984;2023-04-25T06:22:20;11.52;;;4.63;;
18378;SDS011;27025;51.986;5.984;2023-04-25T06:24:46;12.23;;;4.20;;
18378;SDS011;27025;51.986;5.984;2023-04-25T06:27:12;12.50;;;4.80;;
18378;SDS011;27025;51.986;5.984;2023-04-25T06:29:38;9.77;;;4.30;;
18378;SDS011;27025;51.986;5.984;2023-04-25T06:32:04;11.15;;;4.28;;
18378;SDS011;27025;51.986;5.984;2023-04-25T06:34:30;10.30;;;4.28;;
18378;SDS011;27025;51.986;5.984;2023-04-25T06:36:56;9.48;;;4.15;;
18378;SDS011;27025;51.986;5.984;2023-04-25T06:39:22;8.85;;;4.07;;
18378;SDS011;27025;51.986;5.984;2023-04-25T06:41:50;9.85;;;4.13;;
18378;SDS011;27025;51.986;5.984;2023-04-25T06:44:16;8.80;;;3.83;;
18378;SDS011;27025;51.986;5.984;2023-04-25T06:46:42;10.13;;;3.83;;
18378;SDS011;27025;51.986;5.984;2023-04-25T06:49:08;10.77;;;4.80;;
18378;SDS011;27025;51.986;5.984;2023-04-25T06:51:34;12.45;;;4.32;;
18378;SDS011;27025;51.986;5.984;2023-04-25T06:54:00;11.15;;;4.30;;
18378;SDS011;27025;51.986;5.984;2023-04-25T06:56:26;15.60;;;4.70;;
18378;SDS011;27025;51.986;5.984;2023-04-25T06:58:54;9.15;;;4.30;;
18378;SDS011;27025;51.986;5.984;2023-04-25T07:01:20;10.95;;;3.90;;
18378;SDS011;27025;51.986;5.984;2023-04-25T07:03:46;13.07;;;4.22;;
18378;SDS011;27025;51.986;5.984;2023-04-25T07:06:12;14.07;;;4.45;;
18378;SDS011;27025;51.986;5.984;2023-04-25T07:08:38;12.45;;;3.67;;
18378;SDS011;27025;51.986;5.984;2023-04-25T07:11:04;11.10;;;3.47;;
18378;SDS011;27025;51.986;5.984;2023-04-25T07:13:30;11.90;;;3.43;;
18378;SDS011;27025;51.986;5.984;2023-04-25T07:15:56;12.63;;;3.73;;
18378;SDS011;27025;51.986;5.984;2023-04-25T07:18:22;14.25;;;3.95;;
18378;SDS011;27025;51.986;5.984;2023-04-25T07:20:48;13.67;;;3.80;;
18378;SDS011;27025;51.986;5.984;2023-04-25T07:23:14;12.60;;;3.83;;
18378;SDS011;27025;51.986;5.984;2023-04-25T07:25:40;10.20;;;3.85;;
18378;SDS011;27025;51.986;5.984;2023-04-25T07:28:06;11.88;;;3.90;;
18378;SDS011;27025;51.986;5.984;2023-04-25T07:30:33;11.98;;;3.90;;
18378;SDS011;27025;51.986;5.984;2023-04-25T07:33:00;11.80;;;3.73;;
18378;SDS011;27025;51.986;5.984;2023-04-25T07:35:26;13.25;;;4.00;;
18378;SDS011;27025;51.986;5.984;2023-04-25T07:37:52;11.63;;;3.30;;
18378;SDS011;27025;51.986;5.984;2023-04-25T07:40:18;14.27;;;3.88;;
18378;SDS011;27025;51.986;5.984;2023-04-25T07:42:44;11.88;;;3.70;;
18378;SDS011;27025;51.986;5.984;2023-04-25T07:45:10;12.83;;;3.50;;
18378;SDS011;27025;51.986;5.984;2023-04-25T07:47:36;11.48;;;3.30;;
18378;SDS011;27025;51.986;5.984;2023-04-25T07:50:03;9.30;;;3.50;;
18378;SDS011;27025;51.986;5.984;2023-04-25T07:52:29;10.73;;;3.67;;
18378;SDS011;27025;51.986;5.984;2023-04-25T07:54:55;12.07;;;3.60;;
18378;SDS011;27025;51.986;5.984;2023-04-25T07:57:22;10.30;;;3.20;;
18378;SDS011;27025;51.986;5.984;2023-04-25T07:59:49;13.38;;;3.70;;
18378;SDS011;27025;51.986;5.984;2023-04-25T08:02:15;11.32;;;3.33;;
18378;SDS011;27025;51.986;5.984;2023-04-25T08:04:41;10.20;;;3.35;;
18378;SDS011;27025;51.986;5.984;2023-04-25T08:07:07;12.50;;;3.40;;
18378;SDS011;27025;51.986;5.984;2023-04-25T08:09:33;11.82;;;3.30;;
18378;SDS011;27025;51.986;5.984;2023-04-25T08:12:01;11.00;;;3.55;;
18378;SDS011;27025;51.986;5.984;2023-04-25T08:14:27;11.80;;;3.50;;
18378;SDS011;27025;51.986;5.984;2023-04-25T08:16:56;12.77;;;3.17;;
18378;SDS011;27025;51.986;5.984;2023-04-25T08:19:22;12.57;;;3.28;;
18378;SDS011;27025;51.986;5.984;2023-04-25T08:21:48;10.02;;;2.70;;
18378;SDS011;27025;51.986;5.984;2023-04-25T08:24:15;8.63;;;2.28;;
18378;SDS011;27025;51.986;5.984;2023-04-25T08:26:41;9.55;;;2.30;;
18378;SDS011;27025;51.986;5.984;2023-04-25T08:29:07;8.23;;;2.33;;
18378;SDS011;27025;51.986;5.984;2023-04-25T08:31:33;10.13;;;2.60;;
18378;SDS011;27025;51.986;5.984;2023-04-25T08:33:59;10.43;;;2.65;;
18378;SDS011;27025;51.986;5.984;2023-04-25T08:36:25;9.03;;;2.37;;
18378;SDS011;27025;51.986;5.984;2023-04-25T08:38:53;7.55;;;2.40;;
18378;SDS011;27025;51.986;5.984;2023-04-25T08:41:19;8.00;;;2.40;;
18378;SDS011;27025;51.986;5.984;2023-04-25T08:43:45;11.18;;;2.40;;
18378;SDS011;27025;51.986;5.984;2023-04-25T08:46:14;9.02;;;2.35;;
18378;SDS011;27025;51.986;5.984;2023-04-25T08:48:43;7.80;;;2.38;;
18378;SDS011;27025;51.986;5.984;2023-04-25T08:51:10;10.00;;;2.40;;
18378;SDS011;27025;51.986;5.984;2023-04-25T08:53:41;8.25;;;2.30;;
18378;SDS011;27025;51.986;5.984;2023-04-25T08:56:07;10.48;;;2.53;;
18378;SDS011;27025;51.986;5.984;2023-04-25T08:58:34;10.20;;;2.57;;
18378;SDS011;27025;51.986;5.984;2023-04-25T09:01:01;7.93;;;2.25;;
18378;SDS011;27025;51.986;5.984;2023-04-25T09:03:27;8.25;;;2.35;;
18378;SDS011;27025;51.986;5.984;2023-04-25T09:05:53;9.07;;;2.53;;
18378;SDS011;27025;51.986;5.984;2023-04-25T09:08:19;8.80;;;2.45;;
18378;SDS011;27025;51.986;5.984;2023-04-25T09:10:45;7.15;;;2.40;;
18378;SDS011;27025;51.986;5.984;2023-04-25T09:13:12;7.70;;;2.30;;
18378;SDS011;27025;51.986;5.984;2023-04-25T09:15:53;7.70;;;2.50;;
18378;SDS011;27025;51.986;5.984;2023-04-25T09:18:29;9.88;;;2.60;;
18378;SDS011;27025;51.986;5.984;2023-04-25T09:20:56;8.63;;;2.37;;
18378;SDS011;27025;51.986;5.984;2023-04-25T09:23:23;9.43;;;2.38;;
18378;SDS011;27025;51.986;5.984;2023-04-25T09:25:51;8.83;;;2.40;;
18378;SDS011;27025;51.986;5.984;2023-04-25T09:28:22;8.07;;;2.40;;
18378;SDS011;27025;51.986;5.984;2023-04-25T09:30:52;9.40;;;2.60;;
18378;SDS011;27025;51.986;5.984;2023-04-25T09:33:20;8.85;;;2.60;;
18378;SDS011;27025;51.986;5.984;2023-04-25T09:35:46;7.03;;;2.40;;
18378;SDS011;27025;51.986;5.984;2023-04-25T09:38:17;5.40;;;2.20;;
18378;SDS011;27025;51.986;5.984;2023-04-25T09:40:45;7.38;;;2.10;;
18378;SDS011;27025;51.986;5.984;2023-04-25T09:43:21;6.88;;;2.30;;
18378;SDS011;27025;51.986;5.984;2023-04-25T09:45:47;8.93;;;2.35;;
18378;SDS011;27025;51.986;5.984;2023-04-25T09:48:18;7.27;;;1.90;;
18378;SDS011;27025;51.986;5.984;2023-04-25T09:50:45;5.23;;;1.80;;
18378;SDS011;27025;51.986;5.984;2023-04-25T09:53:11;4.87;;;1.70;;
18378;SDS011;27025;51.986;5.984;2023-04-25T09:55:37;4.17;;;1.70;;
18378;SDS011;27025;51.986;5.984;2023-04-25T09:58:05;6.00;;;1.87;;
18378;SDS011;27025;51.986;5.984;2023-04-25T10:00:33;5.20;;;1.83;;
18378;SDS011;27025;51.986;5.984;2023-04-25T10:03:01;3.17;;;1.47;;
18378;SDS011;27025;51.986;5.984;2023-04-25T10:05:30;6.67;;;1.40;;
18378;SDS011;27025;51.986;5.984;2023-04-25T10:07:58;2.97;;;1.30;;
18378;SDS011;27025;51.986;5.984;2023-04-25T10:10:25;3.73;;;1.33;;
18378;SDS011;27025;51.986;5.984;2023-04-25T10:12:53;4.43;;;1.63;;
18378;SDS011;27025;51.986;5.984;2023-04-25T10:15:19;4.67;;;1.57;;
18378;SDS011;27025;51.986;5.984;2023-04-25T10:17:46;5.07;;;1.73;;
18378;SDS011;27025;51.986;5.984;2023-04-25T10:20:13;4.63;;;1.63;;
18378;SDS011;27025;51.986;5.984;2023-04-25T10:22:41;5.43;;;1.90;;
18378;SDS011;27025;51.986;5.984;2023-04-25T10:25:07;6.27;;;1.93;;
18378;SDS011;27025;51.986;5.984;2023-04-25T10:27:34;5.07;;;1.90;;
18378;SDS011;27025;51.986;5.984;2023-04-25T10:30:04;5.53;;;1.93;;
18378;SDS011;27025;51.986;5.984;2023-04-25T10:32:31;6.03;;;1.83;;
18378;SDS011;27025;51.986;5.984;2023-04-25T10:35:04;5.37;;;1.70;;
18378;SDS011;27025;51.986;5.984;2023-04-25T10:37:35;5.20;;;1.80;;
18378;SDS011;27025;51.986;5.984;2023-04-25T10:40:07;8.03;;;1.70;;
18378;SDS011;27025;51.986;5.984;2023-04-25T10:42:34;6.90;;;2.08;;
18378;SDS011;27025;51.986;5.984;2023-04-25T10:45:09;6.68;;;2.10;;
18378;SDS011;27025;51.986;5.984;2023-04-25T10:47:36;7.87;;;2.23;;
18378;SDS011;27025;51.986;5.984;2023-04-25T10:50:05;6.13;;;2.20;;
18378;SDS011;27025;51.986;5.984;2023-04-25T10:52:32;6.30;;;2.00;;
18378;SDS011;27025;51.986;5.984;2023-04-25T10:54:58;9.77;;;2.45;;
18378;SDS011;27025;51.986;5.984;2023-04-25T10:59:58;7.38;;;2.20;;
18378;SDS011;27025;51.986;5.984;2023-04-25T11:02:26;7.00;;;2.38;;
18378;SDS011;27025;51.986;5.984;2023-04-25T11:04:53;7.10;;;2.37;;
18378;SDS011;27025;51.986;5.984;2023-04-25T11:08:06;8.80;;;2.20;;
18378;SDS011;27025;51.986;5.984;2023-04-25T11:10:06;7.00;;;2.20;;
18378;SDS011;27025;51.986;5.984;2023-04-25T11:12:32;6.07;;;2.10;;
18378;SDS011;27025;51.986;5.984;2023-04-25T11:15:05;6.67;;;2.10;;
18378;SDS011;27025;51.986;5.984;2023-04-25T11:17:31;5.88;;;2.08;;
18378;SDS011;27025;51.986;5.984;2023-04-25T11:19:58;6.80;;;2.15;;
18378;SDS011;27025;51.986;5.984;2023-04-25T11:22:24;6.73;;;2.07;;
18378;SDS011;27025;51.986;5.984;2023-04-25T11:24:51;5.53;;;1.98;;
18378;SDS011;27025;51.986;5.984;2023-04-25T11:27:17;5.50;;;1.57;;
18378;SDS011;27025;51.986;5.984;2023-04-25T11:29:43;5.03;;;1.50;;
18378;SDS011;27025;51.986;5.984;2023-04-25T11:32:13;4.77;;;1.63;;
18378;SDS011;27025;51.986;5.984;2023-04-25T11:34:39;4.57;;;1.90;;
18378;SDS011;27025;51.986;5.984;2023-04-25T11:37:05;6.67;;;1.40;;
18378;SDS011;27025;51.986;5.984;2023-04-25T11:39:31;3.40;;;1.40;;
18378;SDS011;27025;51.986;5.984;2023-04-25T11:41:57;5.33;;;1.50;;
18378;SDS011;27025;51.986;5.984;2023-04-25T11:44:23;4.45;;;1.65;;
18378;SDS011;27025;51.986;5.984;2023-04-25T11:46:49;4.22;;;1.50;;
18378;SDS011;27025;51.986;5.984;2023-04-25T11:49:15;2.53;;;1.40;;
18378;SDS011;27025;51.986;5.984;2023-04-25T11:51:45;4.53;;;1.73;;
18378;SDS011;27025;51.986;5.984;2023-04-25T11:54:12;3.35;;;1.67;;
18378;SDS011;27025;51.986;5.984;2023-04-25T11:56:41;4.40;;;1.80;;
18378;SDS011;27025;51.986;5.984;2023-04-25T11:59:07;4.05;;;1.63;;
18378;SDS011;27025;51.986;5.984;2023-04-25T12:01:35;4.77;;;1.63;;
18378;SDS011;27025;51.986;5.984;2023-04-25T12:04:11;3.73;;;1.20;;
18378;SDS011;27025;51.986;5.984;2023-04-25T12:06:38;3.70;;;1.50;;
18378;SDS011;27025;51.986;5.984;2023-04-25T12:09:07;3.67;;;1.40;;
18378;SDS011;27025;51.986;5.984;2023-04-25T12:11:40;3.92;;;1.50;;
18378;SDS011;27025;51.986;5.984;2023-04-25T12:14:06;3.97;;;1.47;;
18378;SDS011;27025;51.986;5.984;2023-04-25T12:16:45;5.05;;;1.60;;
18378;SDS011;27025;51.986;5.984;2023-04-25T12:19:15;5.95;;;1.90;;
18378;SDS011;27025;51.986;5.984;2023-04-25T12:21:42;6.65;;;1.90;;
18378;SDS011;27025;51.986;5.984;2023-04-25T12:24:11;4.93;;;1.80;;
18378;SDS011;27025;51.986;5.984;2023-04-25T12:29:23;6.30;;;1.88;;
18378;SDS011;27025;51.986;5.984;2023-04-25T12:31:50;6.63;;;1.90;;
18378;SDS011;27025;51.986;5.984;2023-04-25T12:34:20;6.05;;;1.80;;
18378;SDS011;27025;51.986;5.984;2023-04-25T12:36:46;4.53;;;1.93;;
18378;SDS011;27025;51.986;5.984;2023-04-25T12:39:18;6.30;;;2.00;;
18378;SDS011;27025;51.986;5.984;2023-04-25T12:41:45;5.97;;;2.00;;
18378;SDS011;27025;51.986;5.984;2023-04-25T12:44:11;5.68;;;2.03;;
18378;SDS011;27025;51.986;5.984;2023-04-25T12:46:37;5.82;;;2.05;;
18378;SDS011;27025;51.986;5.984;2023-04-25T12:49:04;4.18;;;1.70;;
18378;SDS011;27025;51.986;5.984;2023-04-25T12:51:32;4.70;;;1.92;;
18378;SDS011;27025;51.986;5.984;2023-04-25T12:54:01;5.88;;;2.00;;
18378;SDS011;27025;51.986;5.984;2023-04-25T12:56:28;5.70;;;2.20;;
18378;SDS011;27025;51.986;5.984;2023-04-25T12:58:54;5.47;;;2.10;;
18378;SDS011;27025;51.986;5.984;2023-04-25T13:01:20;6.82;;;2.13;;
18378;SDS011;27025;51.986;5.984;2023-04-25T13:03:46;7.35;;;2.10;;
18378;SDS011;27025;51.986;5.984;2023-04-25T13:06:13;7.05;;;2.30;;
18378;SDS011;27025;51.986;5.984;2023-04-25T13:08:39;8.27;;;2.00;;
18378;SDS011;27025;51.986;5.984;2023-04-25T13:11:06;5.28;;;1.95;;
18378;SDS011;27025;51.986;5.984;2023-04-25T13:13:32;3.95;;;1.70;;
18378;SDS011;27025;51.986;5.984;2023-04-25T13:16:00;5.03;;;1.67;;
18378;SDS011;27025;51.986;5.984;2023-04-25T13:18:27;4.68;;;2.00;;
18378;SDS011;27025;51.986;5.984;2023-04-25T13:20:53;5.10;;;1.70;;
18378;SDS011;27025;51.986;5.984;2023-04-25T13:23:19;6.55;;;1.70;;
18378;SDS011;27025;51.986;5.984;2023-04-25T13:25:45;4.93;;;1.90;;
18378;SDS011;27025;51.986;5.984;2023-04-25T13:28:12;3.60;;;1.40;;
18378;SDS011;27025;51.986;5.984;2023-04-25T13:30:38;3.50;;;1.40;;
18378;SDS011;27025;51.986;5.984;2023-04-25T13:33:04;4.17;;;1.53;;
18378;SDS011;27025;51.986;5.984;2023-04-25T13:35:31;4.18;;;1.60;;
18378;SDS011;27025;51.986;5.984;2023-04-25T13:37:58;5.32;;;1.70;;
18378;SDS011;27025;51.986;5.984;2023-04-25T13:40:24;4.05;;;1.58;;
18378;SDS011;27025;51.986;5.984;2023-04-25T13:42:50;4.17;;;1.50;;
18378;SDS011;27025;51.986;5.984;2023-04-25T13:45:16;4.23;;;1.20;;
18378;SDS011;27025;51.986;5.984;2023-04-25T13:47:42;6.07;;;1.80;;
18378;SDS011;27025;51.986;5.984;2023-04-25T13:50:08;5.83;;;1.70;;
18378;SDS011;27025;51.986;5.984;2023-04-25T13:52:35;4.27;;;1.70;;
18378;SDS011;27025;51.986;5.984;2023-04-25T13:55:01;4.35;;;1.60;;
18378;SDS011;27025;51.986;5.984;2023-04-25T13:57:28;3.58;;;1.55;;
18378;SDS011;27025;51.986;5.984;2023-04-25T13:59:55;4.55;;;1.40;;
18378;SDS011;27025;51.986;5.984;2023-04-25T14:02:21;4.60;;;1.77;;
18378;SDS011;27025;51.986;5.984;2023-04-25T14:04:47;3.97;;;1.37;;
18378;SDS011;27025;51.986;5.984;2023-04-25T14:07:13;4.33;;;1.70;;
18378;SDS011;27025;51.986;5.984;2023-04-25T14:09:43;3.27;;;1.50;;
18378;SDS011;27025;51.986;5.984;2023-04-25T14:12:09;4.15;;;1.48;;
18378;SDS011;27025;51.986;5.984;2023-04-25T14:14:36;5.30;;;1.60;;
18378;SDS011;27025;51.986;5.984;2023-04-25T14:17:02;2.63;;;1.40;;
18378;SDS011;27025;51.986;5.984;2023-04-25T14:19:29;3.93;;;1.63;;
18378;SDS011;27025;51.986;5.984;2023-04-25T14:21:55;3.83;;;1.40;;
18378;SDS011;27025;51.986;5.984;2023-04-25T14:24:21;5.70;;;1.70;;
18378;SDS011;27025;51.986;5.984;2023-04-25T14:26:47;3.30;;;1.40;;
18378;SDS011;27025;51.986;5.984;2023-04-25T14:29:13;4.57;;;1.60;;
18378;SDS011;27025;51.986;5.984;2023-04-25T14:41:55;3.80;;;1.50;;
18378;SDS011;27025;51.986;5.984;2023-04-25T14:44:21;4.90;;;1.80;;
18378;SDS011;27025;51.986;5.984;2023-04-25T14:46:47;5.87;;;1.80;;
18378;SDS011;27025;51.986;5.984;2023-04-25T14:49:16;5.10;;;1.50;;
18378;SDS011;27025;51.986;5.984;2023-04-25T14:51:42;4.43;;;1.80;;
18378;SDS011;27025;51.986;5.984;2023-04-25T14:54:08;4.80;;;2.00;;